Pagrindinis puslapis
METAR-TAF:

METAR-TAF

Oro uostai :

Džida, Saudo Arabija

platuma: 21-42N, ilguma: 039-11E, Aukštis: 15 m

Dabartinis oras

Ataskaita buvo paskelbta 56 minutes, ne 07:00 UTC
Vėjas 6 kt iš Šiaurės su gūsio iki 18 kt
Temperatūra 24°C
Drėgmė 38%
Slėgis 1017 hPa
Matomumas 10 km arba daugiau
nėra debesų žemiau 1500 m ir nėra kamuolinių lietaus debesų

METAR: OEJN 180700Z 36006G18KT CAVOK 24/09 Q1017 NOSIG

Laikas: 10:56 (07:56 UTC)

Prognozė

Ataskaita buvo paskelbta 2 valandos ir 56 minutes, ne 05:00 UTC
Prognozė galioja nuo 18 metu 06 UTC su 19 metu 12 UTC
Vėjas 15 kt iš Šiaurės
Matomumas: 7000 m
Tapsmas
nuo 18 metu 18 UTC su 18 metu 20 UTC
Vėjas 5 kt iš Šiaurės/Šiaurės Rytų

TAF: OEJN 180500Z 1806/1912 35015KT 7000 NSC BECMG 1818/1820 02005KT

Orai ataskaitas ir orų prognozės (METAR, TAF).

turimą stotys yra geltonos ir raudonos taškus žemėlapyje.

Perkelti pele per norėdami pamatyti stoties vardą.

Tada spustelėkite, norėdami matyti oro stebėjimo ir prognozės.

Norėdami pakeisti žemėlapį: spustelėkite ant žalios mygtukų su juodo kryžiaus žemyn,; žalią mygtuką su brūkšneliu, jei norite nutolinti; arba žalių rodyklių gretimoms žemėlapius.


METAR-TAF: